Time;durP1;ratioP1;P1;durP2;ratioP2;P2;SDS_P1;SDS_P2;PMS_P1;PMS_P2;Temp;Humidity;BMP_temperature;BMP_pressure;BME280_temperature;BME280_humidity;BME280_pressure;Samples;Min_cycle;Max_cycle;Signal;HPM_P1;HPM_P2
2023/01/30 00:01:04;;;;;;;1.63;1.13;;;;;;;-0.35;94.68;98603.78;10405088;28;20053;-84
2023/01/30 00:06:06;;;;;;;0.47;0.47;;;;;;;-0.34;94.97;98588.44;10388589;28;20041;-84
2023/01/30 00:11:11;;;;;;;1.55;1.40;;;;;;;-0.35;95.17;98557.13;10405827;28;20042;-83
2023/01/30 00:16:13;;;;;;;1.25;0.93;;;;;;;-0.36;95.17;98542.03;10405539;28;20080;-85
2023/01/30 00:21:16;;;;;;;1.23;1.13;;;;;;;-0.41;95.19;98532.06;10404283;28;20042;-84
2023/01/30 00:26:18;;;;;;;0.85;0.82;;;;;;;-0.49;96.22;98510.19;10405800;28;20045;-85
2023/01/30 00:31:20;;;;;;;1.42;1.30;;;;;;;-0.55;96.88;98500.44;10406253;28;20041;-84
2023/01/30 00:36:22;;;;;;;2.17;1.45;;;;;;;-0.60;97.26;98479.69;10405319;28;20053;-84
2023/01/30 00:47:04;;;;;;;1.20;1.20;;;;;;;-0.62;97.93;98479.94;10403836;28;20050;-84
2023/01/30 00:47:05;;;;;;;1.60;1.05;;;;;;;-0.64;98.69;98457.06;10404843;28;20042;-85
2023/01/30 00:52:07;;;;;;;1.95;1.17;;;;;;;-0.64;98.61;98403.19;10403506;28;20046;-84
2023/01/30 00:57:09;;;;;;;1.33;1.23;;;;;;;-0.65;98.56;98423.94;10404566;28;20523;-84
2023/01/30 01:02:11;;;;;;;1.63;0.73;;;;;;;-0.67;98.68;98407.22;10404993;28;20057;-85
2023/01/30 01:07:15;;;;;;;0.70;0.57;;;;;;;-0.67;99.14;98382.19;10387032;28;20041;-84
2023/01/30 01:12:17;;;;;;;1.02;0.80;;;;;;;-0.67;98.71;98369.53;10403249;28;20425;-85
2023/01/30 01:17:19;;;;;;;0.85;0.70;;;;;;;-0.68;99.44;98353.63;10387076;28;20057;-84
2023/01/30 01:22:21;;;;;;;1.02;0.95;;;;;;;-0.68;99.18;98334.78;10404358;28;20049;-84
2023/01/30 01:27:23;;;;;;;1.33;1.23;;;;;;;-0.69;99.02;98314.31;10402272;28;20483;-84
2023/01/30 01:32:26;;;;;;;1.38;0.90;;;;;;;-0.69;99.65;98317.81;10402728;28;20049;-85
2023/01/30 01:37:28;;;;;;;1.45;0.90;;;;;;;-0.71;99.92;98301.06;10403572;28;20042;-83
2023/01/30 01:42:35;;;;;;;0.98;0.77;;;;;;;-0.70;100.00;98285.72;10403133;28;20058;-84
2023/01/30 01:47:41;;;;;;;1.65;0.55;;;;;;;-0.70;100.00;98270.38;10403288;28;20045;-83
2023/01/30 01:52:44;;;;;;;1.80;0.93;;;;;;;-0.66;99.96;98259.91;10403192;28;20041;-83
2023/01/30 01:57:53;;;;;;;0.68;0.43;;;;;;;-0.65;99.79;98248.88;10402684;28;20053;-85
2023/01/30 02:03:00;;;;;;;0.70;0.70;;;;;;;-0.66;99.53;98217.63;10385313;28;20046;-85
2023/01/30 02:08:12;;;;;;;0.70;0.70;;;;;;;-0.66;99.65;98217.63;10385733;28;20042;-86
2023/01/30 02:13:14;;;;;;;1.25;0.90;;;;;;;-0.66;100.00;98206.06;10402117;28;20053;-83
2023/01/30 02:18:17;;;;;;;2.10;0.65;;;;;;;-0.67;100.00;98172.13;10385840;28;20042;-84
2023/01/30 02:23:37;;;;;;;1.15;1.00;;;;;;;-0.71;100.00;98154.84;10416232;28;20593;-85
2023/01/30 02:29:16;;;;;;;1.25;1.15;;;;;;;-0.72;100.00;98132.50;10423122;28;20049;-85
2023/01/30 02:34:34;;;;;;;1.55;0.80;;;;;;;-0.73;100.00;98117.44;10419334;28;20428;-85
2023/01/30 02:39:55;;;;;;;1.15;0.55;;;;;;;-0.76;100.00;98092.94;10415406;28;20106;-82
2023/01/30 02:44:57;;;;;;;0.68;0.68;;;;;;;-0.75;100.00;98081.09;10421023;28;20044;-84
2023/01/30 02:50:06;;;;;;;0.77;0.77;;;;;;;-0.76;100.00;98042.59;10421821;28;20058;-85
2023/01/30 02:55:09;;;;;;;;;;;;;;;-0.75;100.00;98027.25;10397594;28;20046;-84
2023/01/30 03:00:15;;;;;;;1.15;0.50;;;;;;;-0.77;100.00;98008.66;10408791;28;19925;-85
2023/01/30 03:05:27;;;;;;;0.47;0.47;;;;;;;-0.74;100.00;98007.31;10392648;28;20050;-85
2023/01/30 03:10:42;;;;;;;1.25;1.00;;;;;;;-0.72;100.00;97960.19;10408653;28;20058;-84
2023/01/30 03:16:19;;;;;;;1.00;0.95;;;;;;;-0.70;100.00;97978.75;10392074;28;20053;-85
2023/01/30 03:21:25;;;;;;;0.70;0.70;;;;;;;-0.69;100.00;97953.47;10408182;28;20041;-85
2023/01/30 03:26:35;;;;;;;0.60;0.47;;;;;;;-0.67;100.00;97937.84;10407545;28;20046;-84
2023/01/30 03:31:37;;;;;;;0.60;0.60;;;;;;;-0.65;100.00;97923.03;10390997;28;20038;-83
2023/01/30 03:36:39;;;;;;;0.70;0.70;;;;;;;-0.65;100.00;97914.94;10407177;28;20046;-82
2023/01/30 03:41:42;;;;;;;0.40;0.40;;;;;;;-0.64;100.00;97904.97;10405457;28;20050;-82
2023/01/30 03:46:48;;;;;;;0.68;0.50;;;;;;;-0.64;100.00;97897.69;10390345;28;20042;-84
2023/01/30 03:51:50;;;;;;;2.28;0.45;;;;;;;-0.63;100.00;97882.34;10406108;28;20496;-85
2023/01/30 03:56:56;;;;;;;0.45;0.45;;;;;;;-0.63;100.00;97845.44;10406313;28;20452;-84
2023/01/30 04:01:59;;;;;;;0.43;0.43;;;;;;;-0.61;100.00;97851.38;10389174;28;20042;-84
2023/01/30 04:07:01;;;;;;;0.80;0.45;;;;;;;-0.59;100.00;97834.13;10405654;28;20049;-84
2023/01/30 04:12:04;;;;;;;0.20;0.20;;;;;;;-0.59;100.00;97810.69;10405594;28;20408;-85
2023/01/30 04:17:16;;;;;;;0.40;0.40;;;;;;;-0.54;100.00;97783.72;10389608;28;20396;-83
2023/01/30 04:22:21;;;;;;;0.40;0.40;;;;;;;-0.52;100.00;97778.88;10405697;28;20500;-84
2023/01/30 04:27:25;;;;;;;0.35;0.35;;;;;;;-0.52;100.00;97773.50;10406234;28;20044;-84
2023/01/30 04:32:43;;;;;;;0.45;0.45;;;;;;;-0.52;100.00;97748.44;10389338;28;20054;-85
2023/01/30 04:37:46;;;;;;;0.22;0.22;;;;;;;-0.52;100.00;97732.25;10404183;28;20505;-84
2023/01/30 04:42:53;;;;;;;0.10;0.10;;;;;;;-0.49;100.00;97715.56;10403001;28;20547;-85
2023/01/30 04:48:16;;;;;;;0.60;0.60;;;;;;;-0.50;100.00;97709.38;10406586;28;20058;-84
2023/01/30 04:53:44;;;;;;;0.55;0.55;;;;;;;-0.49;100.00;97691.31;10404599;28;20053;-84
2023/01/30 04:58:47;;;;;;;0.35;0.35;;;;;;;-0.50;100.00;97689.72;10408579;28;20046;-83
2023/01/30 05:03:53;;;;;;;0.30;0.30;;;;;;;-0.49;100.00;97678.66;10406372;28;20054;-86
2023/01/30 05:09:00;;;;;;;0.77;0.70;;;;;;;-0.47;100.00;97654.94;10404335;28;20038;-84
2023/01/30 05:14:02;;;;;;;0.40;0.40;;;;;;;-0.44;100.00;97656.25;10403377;28;20061;-85
2023/01/30 05:19:04;;;;;;;1.05;0.50;;;;;;;-0.45;100.00;97639.28;10402599;28;20364;-84
2023/01/30 05:24:07;;;;;;;0.40;0.40;;;;;;;-0.45;100.00;97625.84;10403902;28;20053;-84
2023/01/30 05:29:10;;;;;;;0.05;0.05;;;;;;;-0.42;100.00;97605.59;10386760;28;20042;-84
2023/01/30 05:34:12;;;;;;;1.63;0.90;;;;;;;-0.37;100.00;97611.72;10403086;28;20046;-83
2023/01/30 05:39:14;;;;;;;0.40;0.40;;;;;;;-0.35;100.00;97598.81;10402131;28;20046;-84
2023/01/30 05:44:17;;;;;;;0.45;0.45;;;;;;;-0.34;100.00;97578.84;10402092;28;20053;-85
2023/01/30 05:49:19;;;;;;;1.58;0.60;;;;;;;-0.32;100.00;97576.69;10402547;28;20132;-84
2023/01/30 05:54:22;;;;;;;0.60;0.40;;;;;;;-0.31;100.00;97561.31;10405324;28;20049;-85
2023/01/30 05:59:24;;;;;;;0.60;0.60;;;;;;;-0.26;100.00;97563.16;10410846;28;20045;-84
2023/01/30 06:04:26;;;;;;;1.80;0.60;;;;;;;-0.23;100.00;97559.88;10410777;28;20473;-83
2023/01/30 06:09:28;;;;;;;0.45;0.45;;;;;;;-0.22;100.00;97543.41;10410763;28;20042;-85
2023/01/30 06:14:31;;;;;;;0.30;0.30;;;;;;;-0.20;100.00;97529.66;10410102;28;20390;-84
2023/01/30 06:19:33;;;;;;;0.63;0.43;;;;;;;-0.21;100.00;97512.69;10410109;28;20050;-85
2023/01/30 06:24:35;;;;;;;0.32;0.32;;;;;;;-0.19;100.00;97499.72;10410165;28;20504;-84
2023/01/30 06:29:38;;;;;;;1.17;0.50;;;;;;;-0.18;100.00;97500.53;10410025;28;20041;-84
2023/01/30 06:34:40;;;;;;;0.40;0.20;;;;;;;-0.15;100.00;97489.19;10409990;28;20069;-84
2023/01/30 06:39:42;;;;;;;0.85;0.70;;;;;;;-0.10;100.00;97481.84;10409333;28;20446;-84
2023/01/30 06:44:45;;;;;;;0.32;0.32;;;;;;;-0.06;100.00;97476.66;10408308;28;20065;-84
2023/01/30 06:49:48;;;;;;;1.40;1.30;;;;;;;-0.07;100.00;97453.50;10407513;28;20504;-84
2023/01/30 06:54:50;;;;;;;1.85;0.73;;;;;;;-0.03;100.00;97444.53;10408726;28;20057;-85
2023/01/30 06:59:52;;;;;;;0.52;0.43;;;;;;;0.05;100.00;97445.81;10408625;28;20049;-84
2023/01/30 07:04:54;;;;;;;0.43;0.43;;;;;;;0.11;100.00;97431.16;10406537;28;20049;-84
2023/01/30 07:09:57;;;;;;;0.50;0.40;;;;;;;0.15;100.00;97429.47;10407826;28;20048;-84
2023/01/30 07:15:00;;;;;;;0.43;0.30;;;;;;;0.18;100.00;97423.50;10406374;28;20049;-84
2023/01/30 07:20:02;;;;;;;0.90;0.30;;;;;;;0.19;100.00;97429.69;10406546;28;20060;-84
2023/01/30 07:25:05;;;;;;;3.40;0.90;;;;;;;0.17;100.00;97423.78;10407840;28;20136;-84
2023/01/30 07:30:08;;;;;;;0.70;0.70;;;;;;;0.15;100.00;97415.97;10408121;28;20052;-83
2023/01/30 07:35:10;;;;;;;0.60;0.55;;;;;;;0.17;100.00;97405.69;10409586;28;20100;-83
2023/01/30 07:40:13;;;;;;;1.52;0.68;;;;;;;0.15;100.00;97402.50;10406763;28;20053;-83
2023/01/30 07:45:15;;;;;;;0.55;0.55;;;;;;;0.18;100.00;97380.38;10405848;28;20038;-83
2023/01/30 07:50:17;;;;;;;1.30;0.68;;;;;;;0.17;100.00;97377.94;10406445;28;20443;-82
2023/01/30 07:55:19;;;;;;;0.73;0.52;;;;;;;0.18;100.00;97369.59;10405173;28;20064;-83
2023/01/30 08:00:22;;;;;;;1.85;0.90;;;;;;;0.23;100.00;97371.41;10405638;28;20049;-83
2023/01/30 08:05:24;;;;;;;1.15;0.65;;;;;;;0.20;100.00;97359.31;10405323;28;20054;-84
2023/01/30 08:10:27;;;;;;;1.45;0.57;;;;;;;0.21;100.00;97352.81;10406789;28;20037;-84
2023/01/30 08:15:32;;;;;;;1.52;0.70;;;;;;;0.22;100.00;97354.41;10404977;28;20049;-83
2023/01/30 08:20:35;;;;;;;3.97;0.60;;;;;;;0.26;100.00;97350.03;10405683;28;20073;-83
2023/01/30 08:25:37;;;;;;;0.75;0.75;;;;;;;0.26;100.00;97336.53;10404423;28;20567;-83
2023/01/30 08:30:40;;;;;;;0.50;0.38;;;;;;;0.33;100.00;97338.84;10404277;28;20147;-84
2023/01/30 08:35:42;;;;;;;0.40;0.40;;;;;;;0.38;100.00;97329.91;10407396;28;20111;-83
2023/01/30 08:40:45;;;;;;;1.92;0.82;;;;;;;0.39;100.00;97310.72;10404725;28;20060;-81
2023/01/30 08:45:47;;;;;;;1.08;0.45;;;;;;;0.42;100.00;97314.72;10404630;28;20493;-84
2023/01/30 08:50:53;;;;;;;0.70;0.70;;;;;;;0.41;100.00;97307.72;10403190;28;20049;-83
2023/01/30 08:55:55;;;;;;;0.50;0.50;;;;;;;0.41;100.00;97297.72;10403616;28;20523;-84
2023/01/30 09:00:57;;;;;;;1.20;0.60;;;;;;;0.39;100.00;97299.13;10404769;28;20053;-83
2023/01/30 09:06:00;;;;;;;1.95;0.55;;;;;;;0.38;100.00;97287.53;10403551;28;20044;-83
2023/01/30 09:11:03;;;;;;;1.33;0.50;;;;;;;0.40;100.00;97279.16;10404567;28;20054;-83
2023/01/30 09:16:06;;;;;;;0.75;0.40;;;;;;;0.37;100.00;97282.44;10403782;28;20057;-84
2023/01/30 09:21:33;;;;;;;0.97;0.43;;;;;;;0.36;100.00;97275.47;10403136;28;20050;-85
2023/01/30 09:26:35;;;;;;;0.35;0.35;;;;;;;0.35;100.00;97268.44;10403723;28;20049;-85
2023/01/30 09:31:41;;;;;;;0.32;0.30;;;;;;;0.36;100.00;97262.78;10410444;28;20037;-83
2023/01/30 09:36:44;;;;;;;0.52;0.50;;;;;;;0.37;100.00;97253.59;10411619;28;20069;-83
2023/01/30 09:41:49;;;;;;;0.40;0.40;;;;;;;0.39;100.00;97247.88;10411700;28;20046;-83
2023/01/30 09:47:17;;;;;;;1.80;0.68;;;;;;;0.40;100.00;97244.09;10410202;28;20038;-84
2023/01/30 09:52:34;;;;;;;1.15;0.50;;;;;;;0.42;100.00;97241.91;10400795;28;20042;-84
2023/01/30 09:57:36;;;;;;;0.30;0.30;;;;;;;0.44;100.00;97234.31;10410412;28;20046;-84
2023/01/30 10:02:47;;;;;;;0.40;0.40;;;;;;;0.44;100.00;97227.00;10395202;28;20072;-85
2023/01/30 10:08:03;;;;;;;0.50;0.47;;;;;;;0.45;100.00;97215.13;10410981;28;20041;-83
2023/01/30 10:13:18;;;;;;;0.38;0.35;;;;;;;0.45;100.00;97209.72;10410941;28;20057;-84
2023/01/30 10:18:58;;;;;;;0.95;0.50;;;;;;;0.43;100.00;97197.63;10420592;28;20052;-85
2023/01/30 10:24:19;;;;;;;0.55;0.38;;;;;;;0.39;100.00;97189.34;10428826;28;20042;-83
2023/01/30 10:29:32;;;;;;;0.70;0.30;;;;;;;0.38;100.00;97205.84;10436950;28;20133;-84
2023/01/30 10:34:36;;;;;;;0.60;0.40;;;;;;;0.31;100.00;97181.94;10429036;28;20052;-84
2023/01/30 10:40:05;;;;;;;0.50;0.50;;;;;;;0.27;100.00;97189.03;10425127;28;20060;-84
2023/01/30 10:45:23;;;;;;;0.35;0.30;;;;;;;0.29;100.00;97173.38;10415922;28;20071;-83
2023/01/30 10:50:38;;;;;;;0.20;0.20;;;;;;;0.30;100.00;97178.44;10413159;28;20555;-86
2023/01/30 10:55:55;;;;;;;0.10;0.10;;;;;;;0.32;100.00;97167.38;10392105;28;20046;-85
2023/01/30 11:00:59;;;;;;;0.15;0.10;;;;;;;0.33;100.00;97165.47;10407889;28;20046;-84
2023/01/30 11:06:10;;;;;;;0.28;0.20;;;;;;;0.32;100.00;97163.88;10407826;28;20604;-84
2023/01/30 11:11:29;;;;;;;0.47;0.20;;;;;;;0.32;100.00;97159.28;10408640;28;20416;-84
2023/01/30 11:16:39;;;;;;;1.75;0.30;;;;;;;0.28;100.00;97148.28;10407126;28;20046;-83
2023/01/30 11:21:54;;;;;;;0.20;0.20;;;;;;;0.25;100.00;97138.13;10391245;28;20115;-84
2023/01/30 11:27:29;;;;;;;0.20;0.20;;;;;;;0.24;100.00;97133.03;10407379;28;20046;-83
2023/01/30 11:32:32;;;;;;;0.38;0.38;;;;;;;0.22;100.00;97141.41;10408669;28;20519;-84
2023/01/30 11:37:52;;;;;;;1.20;0.30;;;;;;;0.17;100.00;97136.09;10406582;28;20053;-83
2023/01/30 11:43:02;;;;;;;0.22;0.22;;;;;;;0.10;100.00;97130.31;10406910;28;20054;-84
2023/01/30 11:48:14;;;;;;;0.20;0.20;;;;;;;0.08;100.00;97127.13;10407173;28;20056;-84
2023/01/30 11:53:34;;;;;;;0.57;0.30;;;;;;;0.06;100.00;97132.03;10405314;28;20045;-83
2023/01/30 11:58:38;;;;;;;0.10;0.10;;;;;;;0.06;100.00;97126.63;10406536;28;20062;-83
2023/01/30 12:03:47;;;;;;;0.43;0.30;;;;;;;0.06;100.00;97134.72;10401971;28;20045;-83
2023/01/30 12:08:53;;;;;;;0.28;0.28;;;;;;;0.06;100.00;97137.41;10402752;28;20061;-82
2023/01/30 12:14:25;;;;;;;0.20;0.20;;;;;;;0.05;100.00;97135.81;10405343;28;20049;-82
2023/01/30 12:19:38;;;;;;;0.20;0.20;;;;;;;0.06;100.00;97123.94;10405278;28;20046;-83
2023/01/30 12:24:50;;;;;;;0.15;0.15;;;;;;;0.08;100.00;97119.03;10388322;28;20046;-82
2023/01/30 12:29:59;;;;;;;0.30;0.30;;;;;;;0.09;100.00;97117.94;10404278;28;20069;-84
2023/01/30 12:35:14;;;;;;;0.57;0.40;;;;;;;0.13;100.00;97128.91;10403725;28;20049;-83
2023/01/30 12:40:47;;;;;;;0.28;0.28;;;;;;;0.17;100.00;97119.94;10404822;28;20050;-83
2023/01/30 12:46:07;;;;;;;0.35;0.35;;;;;;;0.16;100.00;97123.72;10402672;28;20083;-85
2023/01/30 12:51:42;;;;;;;0.30;0.30;;;;;;;0.16;100.00;97122.91;10403580;28;20046;-82
2023/01/30 12:56:53;;;;;;;0.20;0.20;;;;;;;0.18;100.00;97143.13;10403317;28;20049;-83
2023/01/30 13:02:23;;;;;;;0.10;0.10;;;;;;;0.21;100.00;97139.81;10399653;28;20068;-82
2023/01/30 13:07:43;;;;;;;0.08;0.08;;;;;;;0.22;100.00;97152.19;10404439;28;20053;-83
2023/01/30 13:12:59;;;;;;;0.82;0.57;;;;;;;0.26;100.00;97150.50;10402607;28;20064;-84
2023/01/30 13:18:17;;;;;;;0.43;0.30;;;;;;;0.28;100.00;97152.88;10404108;28;20057;-84
2023/01/30 13:23:29;;;;;;;0.20;0.15;;;;;;;0.31;100.00;97157.69;10402924;28;20049;-82
2023/01/30 13:28:52;;;;;;;0.03;0.03;;;;;;;0.34;100.00;97161.66;10403549;28;20046;-84
2023/01/30 13:34:06;;;;;;;0.20;0.20;;;;;;;0.38;100.00;97171.56;10402069;28;20058;-83
2023/01/30 13:39:31;;;;;;;0.45;0.45;;;;;;;0.41;100.00;97170.97;10402385;28;20046;-83
2023/01/30 13:44:35;;;;;;;2.05;0.30;;;;;;;0.41;100.00;97175.56;10402032;28;20519;-84
2023/01/30 13:49:50;;;;;;;0.50;0.20;;;;;;;0.41;100.00;97186.34;10401974;28;20046;-84
2023/01/30 13:55:29;;;;;;;0.75;0.52;;;;;;;0.54;100.00;97199.06;10402033;28;20042;-83
2023/01/30 14:00:33;;;;;;;0.68;0.68;;;;;;;0.56;100.00;97196.84;10403030;28;20050;-84
2023/01/30 14:05:59;;;;;;;0.20;0.20;;;;;;;0.56;100.00;97191.44;10401812;28;20041;-85
2023/01/30 14:11:01;;;;;;;0.52;0.52;;;;;;;0.76;100.00;97201.03;10402868;28;20038;-83
2023/01/30 14:16:05;;;;;;;0.50;0.50;;;;;;;0.76;100.00;97207.22;10405835;28;20045;-84
2023/01/30 14:21:18;;;;;;;0.30;0.30;;;;;;;0.69;100.00;97197.91;10360020;28;20049;-84
2023/01/30 14:26:46;;;;;;;0.28;0.28;;;;;;;0.61;100.00;97199.44;10392374;28;20049;-84
2023/01/30 14:31:49;;;;;;;0.80;0.30;;;;;;;0.57;100.00;97214.63;10409566;28;20050;-83
2023/01/30 14:36:52;;;;;;;0.40;0.40;;;;;;;0.55;100.00;97216.84;10407941;28;20038;-84
2023/01/30 14:42:20;;;;;;;1.13;0.55;;;;;;;0.52;100.00;97217.41;10408816;28;20058;-83
2023/01/30 14:47:22;;;;;;;0.20;0.20;;;;;;;0.51;100.00;97213.13;10409234;28;20042;-83
2023/01/30 14:52:31;;;;;;;0.50;0.40;;;;;;;0.49;100.00;97208.03;10407342;28;20061;-84
2023/01/30 14:57:33;;;;;;;0.38;0.38;;;;;;;0.51;100.00;97221.19;10407279;28;20046;-83
2023/01/30 15:02:42;;;;;;;0.63;0.32;;;;;;;0.50;100.00;97219.59;10407184;28;20042;-82
2023/01/30 15:07:53;;;;;;;0.50;0.50;;;;;;;0.48;100.00;97228.00;10410312;28;20037;-84
2023/01/30 15:13:01;;;;;;;0.40;0.40;;;;;;;0.47;100.00;97228.31;10409749;28;20096;-85
2023/01/30 15:18:38;;;;;;;0.22;0.22;;;;;;;0.45;100.00;97223.22;10408067;28;20513;-85
2023/01/30 15:24:15;;;;;;;0.22;0.22;;;;;;;0.45;100.00;97201.63;10407582;28;20046;-85
2023/01/30 15:29:52;;;;;;;0.50;0.38;;;;;;;0.45;100.00;97206.22;10405139;28;20057;-84
2023/01/30 15:34:55;;;;;;;0.30;0.30;;;;;;;0.46;100.00;97202.44;10406684;28;20080;-84
2023/01/30 15:40:13;;;;;;;0.68;0.52;;;;;;;0.46;100.00;97194.34;10407987;28;20081;-84
2023/01/30 15:45:27;;;;;;;2.20;0.63;;;;;;;0.47;100.00;97212.13;10405514;28;20037;-83
2023/01/30 15:50:35;;;;;;;0.50;0.50;;;;;;;0.50;100.00;97217.72;10405772;28;20429;-84
2023/01/30 15:55:37;;;;;;;1.15;0.40;;;;;;;0.51;100.00;97210.41;10407059;28;20061;-83
2023/01/30 16:00:51;;;;;;;0.22;0.22;;;;;;;0.50;100.00;97208.81;10405100;28;20053;-85
2023/01/30 16:05:55;;;;;;;0.00;0.00;;;;;;;0.51;100.00;97222.00;10404791;28;20397;-84
2023/01/30 16:10:59;;;;;;;0.50;0.50;;;;;;;0.48;100.00;97216.41;10405722;28;20042;-84
2023/01/30 16:16:17;;;;;;;0.15;0.15;;;;;;;0.49;100.00;97201.81;10405205;28;20045;-86
2023/01/30 16:21:25;;;;;;;0.38;0.38;;;;;;;0.51;100.00;97213.13;10406465;28;20038;-84
2023/01/30 16:26:27;;;;;;;0.70;0.60;;;;;;;0.56;100.00;97226.53;10406986;28;20125;-84
2023/01/30 16:31:36;;;;;;;0.88;0.60;;;;;;;0.61;100.00;97221.00;10407159;28;20554;-85
2023/01/30 16:36:39;;;;;;;0.00;0.00;;;;;;;0.66;99.54;97218.22;10389079;28;20512;-84
2023/01/30 16:41:42;;;;;;;0.20;0.20;;;;;;;0.69;98.99;97233.78;10402853;28;20046;-84
2023/01/30 16:47:22;;;;;;;0.45;0.40;;;;;;;0.72;98.15;97227.81;10404662;28;20049;-83
2023/01/30 16:52:30;;;;;;;0.63;0.63;;;;;;;0.74;97.79;97225.63;10379270;28;20050;-84
2023/01/30 16:57:42;;;;;;;0.40;0.40;;;;;;;0.76;97.42;97228.81;10403993;28;20405;-84
2023/01/30 17:02:58;;;;;;;0.28;0.20;;;;;;;0.78;97.02;97226.59;10403451;28;20412;-83
2023/01/30 17:08:01;;;;;;;1.00;0.50;;;;;;;0.81;96.14;97230.59;10402766;28;20045;-85
2023/01/30 17:13:04;;;;;;;1.52;0.98;;;;;;;0.82;95.63;97232.19;10404460;28;20053;-84
2023/01/30 17:18:08;;;;;;;0.80;0.47;;;;;;;0.82;96.03;97227.59;10387380;28;20053;-84
2023/01/30 17:23:15;;;;;;;1.60;0.75;;;;;;;0.82;95.49;97227.59;10403827;28;20050;-85
2023/01/30 17:28:20;;;;;;;1.80;0.57;;;;;;;0.82;95.69;97234.88;10403146;28;20048;-84
2023/01/30 17:33:32;;;;;;;;;;;;;;;;;;;;;
2023/01/30 17:38:35;;;;;;;0.77;0.50;;;;;;;0.86;95.43;97235.88;10387363;28;20049;-83
2023/01/30 17:43:37;;;;;;;0.32;0.17;;;;;;;0.87;95.12;97251.81;10404855;28;20042;-86
2023/01/30 17:48:40;;;;;;;1.05;0.40;;;;;;;0.90;95.06;97250.41;10404160;28;20073;-84
2023/01/30 17:53:43;;;;;;;0.30;0.30;;;;;;;0.92;95.75;97248.19;10411666;28;20046;-85
2023/01/30 17:58:45;;;;;;;0.22;0.22;;;;;;;0.93;94.99;97240.88;10410380;28;20049;-85
2023/01/30 18:03:47;;;;;;;1.35;0.45;;;;;;;0.92;94.82;97240.09;10394006;28;20052;-83
2023/01/30 18:08:49;;;;;;;1.23;0.30;;;;;;;0.89;95.37;97238.81;10409808;28;20042;-84
2023/01/30 18:13:52;;;;;;;4.13;0.70;;;;;;;0.90;94.95;97239.59;10410132;28;20046;-83
2023/01/30 18:18:54;;;;;;;3.80;0.82;;;;;;;0.90;95.49;97248.50;10411815;28;20046;-84
2023/01/30 18:23:57;;;;;;;0.50;0.50;;;;;;;0.92;94.62;97247.41;10430518;28;20508;-84
2023/01/30 18:28:59;;;;;;;0.20;0.20;;;;;;;0.95;95.08;97252.19;10437110;28;20140;-83
2023/01/30 18:34:10;;;;;;;0.25;0.20;;;;;;;0.95;94.64;97252.19;10434150;28;20142;-84
2023/01/30 18:39:13;;;;;;;0.20;0.20;;;;;;;0.95;94.45;97255.69;10427981;28;20058;-84
2023/01/30 18:44:15;;;;;;;1.45;0.40;;;;;;;0.94;94.04;97255.97;10423236;28;20045;-84
2023/01/30 18:49:18;;;;;;;0.77;0.40;;;;;;;0.95;94.62;97265.69;10426084;28;20405;-84
2023/01/30 18:54:20;;;;;;;0.47;0.30;;;;;;;0.95;94.17;97265.69;10412007;28;20050;-84
2023/01/30 18:59:23;;;;;;;2.63;0.47;;;;;;;0.97;94.29;97271.56;10412697;28;20042;-85
2023/01/30 19:04:26;;;;;;;2.67;0.68;;;;;;;0.94;94.20;97259.47;10407619;28;20508;-85
2023/01/30 19:09:28;;;;;;;0.82;0.50;;;;;;;0.94;93.66;97270.28;10409759;28;20406;-86
2023/01/30 19:14:31;;;;;;;2.55;0.88;;;;;;;0.92;94.17;97269.00;10408140;28;20048;-84
2023/01/30 19:19:35;;;;;;;0.73;0.40;;;;;;;0.90;94.29;97272.78;10409731;28;20128;-83
2023/01/30 19:24:37;;;;;;;0.95;0.63;;;;;;;0.88;94.57;97285.78;10408663;28;20037;-84
2023/01/30 19:29:41;;;;;;;0.63;0.38;;;;;;;0.86;94.18;97279.88;10409196;28;20424;-83
2023/01/30 19:34:44;;;;;;;0.90;0.60;;;;;;;0.84;94.59;97273.97;10409481;28;20590;-85
2023/01/30 19:39:46;;;;;;;0.93;0.70;;;;;;;0.84;94.38;97278.56;10407032;28;20068;-84
2023/01/30 19:44:53;;;;;;;2.25;0.70;;;;;;;0.84;94.61;97292.06;10406983;28;20046;-86
2023/01/30 19:49:57;;;;;;;1.45;0.43;;;;;;;0.79;95.03;97289.47;10408119;28;20053;-83
2023/01/30 19:54:59;;;;;;;0.20;0.20;;;;;;;0.80;94.95;97283.78;10407736;28;20520;-85
2023/01/30 20:00:03;;;;;;;1.48;0.50;;;;;;;0.78;95.27;97280.56;10407789;28;20056;-86
2023/01/30 20:05:07;;;;;;;0.25;0.20;;;;;;;0.81;94.56;97285.38;10407560;28;20045;-84
2023/01/30 20:10:09;;;;;;;0.35;0.28;;;;;;;0.82;94.76;97292.38;10407067;28;20420;-84
2023/01/30 20:15:17;;;;;;;0.60;0.60;;;;;;;0.82;94.37;97297.75;10407624;28;20049;-85
2023/01/30 20:20:19;;;;;;;0.70;0.70;;;;;;;0.87;94.22;97291.50;10412935;28;20054;-84
2023/01/30 20:25:21;;;;;;;0.60;0.30;;;;;;;0.90;94.00;97307.06;10409067;28;20419;-85
2023/01/30 20:30:24;;;;;;;1.92;0.57;;;;;;;0.89;94.32;97292.00;10405975;28;20041;-86
2023/01/30 20:35:26;;;;;;;1.95;0.60;;;;;;;0.90;93.39;97305.19;10404722;28;20061;-85
2023/01/30 20:40:28;;;;;;;0.38;0.30;;;;;;;0.92;93.58;97302.19;10405437;28;20042;-85
2023/01/30 20:45:30;;;;;;;1.17;0.30;;;;;;;0.92;93.25;97307.56;10404556;28;20038;-84
2023/01/30 20:50:32;;;;;;;0.70;0.43;;;;;;;0.90;93.60;97283.59;10403729;28;20042;-85
2023/01/30 20:55:35;;;;;;;0.32;0.25;;;;;;;0.86;93.92;97292.56;10404435;28;20050;-85
2023/01/30 21:00:37;;;;;;;1.80;0.68;;;;;;;0.86;94.14;97289.88;10405408;28;20504;-85
2023/01/30 21:05:39;;;;;;;0.10;0.10;;;;;;;0.83;94.20;97287.75;10403858;28;20188;-86
2023/01/30 21:10:45;;;;;;;1.35;0.25;;;;;;;0.83;94.09;97275.06;10404956;28;20060;-85
2023/01/30 21:15:48;;;;;;;1.08;0.57;;;;;;;0.80;94.43;97277.56;10405690;28;20429;-86
2023/01/30 21:20:50;;;;;;;0.55;0.17;;;;;;;0.75;94.76;97264.19;10402792;28;20049;-84
2023/01/30 21:25:52;;;;;;;1.00;0.38;;;;;;;0.75;94.17;97265.00;10407518;28;20054;-84
2023/01/30 21:30:55;;;;;;;0.00;0.00;;;;;;;0.77;94.15;97259.28;10413188;28;20057;-84
2023/01/30 21:35:58;;;;;;;0.90;0.25;;;;;;;0.74;94.22;97257.19;10411896;28;20105;-85
2023/01/30 21:46:21;;;;;;;0.47;0.35;;;;;;;0.68;94.16;97243.00;10411913;28;20060;-84
2023/01/30 21:51:24;;;;;;;0.75;0.70;;;;;;;0.64;94.81;97233.09;10411425;28;20049;-85
2023/01/30 21:56:27;;;;;;;2.95;0.17;;;;;;;0.62;95.24;97238.00;10410935;28;20041;-83
2023/01/30 22:01:29;;;;;;;0.40;0.30;;;;;;;0.62;95.39;97238.81;10409917;28;20077;-85
2023/01/30 22:06:32;;;;;;;0.55;0.40;;;;;;;0.60;95.19;97254.50;10410805;28;20038;-84
2023/01/30 22:11:36;;;;;;;0.73;0.30;;;;;;;0.58;94.97;97254.00;10410734;28;20045;-84
2023/01/30 22:16:38;;;;;;;0.20;0.20;;;;;;;0.59;95.62;97252.91;10409757;28;20042;-83
2023/01/30 22:21:40;;;;;;;0.30;0.30;;;;;;;0.61;94.78;97237.19;10409568;28;20057;-85
2023/01/30 22:26:42;;;;;;;0.47;0.32;;;;;;;0.63;94.76;97234.19;10411126;28;20060;-85
2023/01/30 22:31:45;;;;;;;1.08;0.68;;;;;;;0.66;94.50;97239.00;10410642;28;20072;-85
2023/01/30 22:36:47;;;;;;;0.35;0.25;;;;;;;0.65;94.22;97238.19;10410387;28;20516;-84
2023/01/30 22:41:49;;;;;;;0.35;0.30;;;;;;;0.68;93.39;97232.19;10408538;28;20049;-83
2023/01/30 22:46:52;;;;;;;0.20;0.20;;;;;;;0.71;93.32;97234.31;10409723;28;20041;-84
2023/01/30 22:51:55;;;;;;;0.30;0.20;;;;;;;0.73;92.67;97232.13;10410626;28;20080;-85
2023/01/30 22:56:57;;;;;;;0.13;0.13;;;;;;;0.75;92.37;97226.41;10408720;28;20060;-83
2023/01/30 23:01:59;;;;;;;0.77;0.45;;;;;;;0.76;91.38;97218.00;10412458;28;20054;-86
2023/01/30 23:07:02;;;;;;;0.10;0.10;;;;;;;0.77;91.90;97227.72;10411224;28;20048;-84
2023/01/30 23:22:50;;;;;;;0.10;0.10;;;;;;;0.74;92.97;97228.31;10408081;28;20501;-84
2023/01/30 23:27:52;;;;;;;0.20;0.20;;;;;;;0.63;93.86;97251.19;10390195;28;20049;-83
2023/01/30 23:32:54;;;;;;;0.70;0.20;;;;;;;0.49;94.61;97239.59;10408987;28;20049;-84
2023/01/30 23:38:14;;;;;;;0.20;0.20;;;;;;;0.45;96.05;97242.09;10408159;28;20496;-83
2023/01/30 23:43:18;;;;;;;1.45;0.40;;;;;;;0.42;96.35;97233.81;10407215;28;20054;-84
2023/01/30 23:48:20;;;;;;;1.05;0.30;;;;;;;0.40;96.93;97238.69;10409370;28;20061;-83
2023/01/30 23:53:22;;;;;;;0.55;0.40;;;;;;;0.40;97.34;97236.00;10409117;28;20050;-84
2023/01/30 23:58:24;;;;;;;2.35;0.35;;;;;;;0.41;97.44;97243.78;10406485;28;20480;-84
